Wetterdaten: aktuell Mittwoch, 03.09.2014 01:06
Datum Zeit Temperatur Feuchte Luftdruck Regen Wind Richtung Richtung Taupunkt Windchill
03.09.2014 01:06 14,6 C 95 % 1022,7 hPa 0,0 l/m 16,2 km/h (3 Bft) N-NO22.5 15 13,8 C 14,6 C
03.09.2014 00:06 15,0 C 94 % 1022,7 hPa 0,0 l/m 14,1 km/h (3 Bft) N-NO45 25 14,0 C 15,0 C
02.09.2014 23:06 15,1 C 94 % 1022,7 hPa 0,0 l/m 11,3 km/h (2 Bft) NO45 35 14,1 C 15,1 C
02.09.2014 22:06 15,0 C 92 % 1022,7 hPa 0,0 l/m 5,5 km/h (1 Bft) N-NO 15 13,7 C 15,0 C
02.09.2014 21:06 15,4 C 90 % 1022,7 hPa 0,0 l/m 6,8 km/h (2 Bft) N22.5 360 13,8 C 15,4 C
02.09.2014 20:06 16,3 C 87 % 1022,6 hPa 0,0 l/m 5,6 km/h (1 Bft) N 350 14,1 C 16,3 C
02.09.2014 19:06 17,4 C 85 % 1021,5 hPa 0,0 l/m 3,0 km/h (1 Bft) N-NO 20 14,8 C 17,4 C
02.09.2014 18:06 17,6 C 85 % 1021,4 hPa 0,0 l/m 5,6 km/h (1 Bft) N-NO 15 15,0 C 17,6 C
02.09.2014 17:06 17,6 C 84 % 1021,4 hPa 0,0 l/m 10,1 km/h (2 Bft) N 355 14,9 C 17,6 C
02.09.2014 16:06 18,0 C 81 % 1021,4 hPa 0,0 l/m 21,0 km/h (4 Bft) N-NW45 340 14,7 C 18,0 C
02.09.2014 15:06 19,5 C 75 % 1021,3 hPa 0,0 l/m 26,3 km/h (4 Bft) N-NW22.5 340 14,9 C 19,5 C
02.09.2014 14:06 19,9 C 71 % 1021,3 hPa 0,0 l/m 13,9 km/h (3 Bft) NW 325 14,5 C 19,9 C
02.09.2014 13:06 20,0 C 71 % 1021,3 hPa 0,0 l/m 16,0 km/h (3 Bft) NW67.5 325 14,6 C 20,0 C
02.09.2014 12:06 19,9 C 74 % 1021,3 hPa 0,0 l/m 6,6 km/h (2 Bft) W-NW 300 15,1 C 19,9 C
02.09.2014 11:06 17,8 C 84 % 1021,4 hPa 0,0 l/m 8,5 km/h (2 Bft) NW 320 15,1 C 17,8 C
02.09.2014 10:06 15,2 C 99 % 1021,6 hPa 0,0 l/m 4,3 km/h (1 Bft) W-NW22.5 300 15,0 C 15,2 C
02.09.2014 09:06 12,4 C 98 % 1021,9 hPa 0,0 l/m 0,0 km/h (0 Bft) N-NO 25 12,1 C 12,4 C
02.09.2014 08:06 11,1 C 98 % 1022,0 hPa 0,4 l/m 0,0 km/h (0 Bft) N-NO 25 10,8 C 11,1 C
02.09.2014 07:06 11,0 C 97 % 1021,0 hPa 0,0 l/m 3,0 km/h (1 Bft) N-NO 25 10,5 C 11,0 C
02.09.2014 06:06 11,1 C 96 % 1021,0 hPa 0,0 l/m 3,5 km/h (1 Bft) O 100 10,5 C 11,1 C
02.09.2014 05:03 11,4 C 96 % 1020,9 hPa 0,0 l/m 2,7 km/h (1 Bft) SW 225 10,8 C 11,4 C
02.09.2014 04:03 11,6 C 95 % 1020,9 hPa 0,0 l/m 0,0 km/h (0 Bft) SW 230 10,8 C 11,6 C
02.09.2014 03:03 11,9 C 94 % 1020,9 hPa 0,0 l/m 0,0 km/h (0 Bft) SW 230 11,0 C 11,9 C
02.09.2014 02:03 12,6 C 93 % 1020,8 hPa 0,0 l/m 0,0 km/h (0 Bft) SW 230 11,5 C 12,6 C
02.09.2014 02:00 12,6 C 93 % 1020,8 hPa 0,0 l/m 0,0 km/h (0 Bft) SW 230 11,5 C 12,6 C
_ Min-Zeit 06:57 13:36 02:00 - 02:00 - - 06:57 06:57
Minimum _ 10,8 C 68 % 1020,8 hPa - 0,0 km/h (0 Bft) - - 10,3 C 10,8 C
_ Max-Zeit 13:15 09:51 22:42 07:45 15:06 - - 10:33 13:15
Maximum _ 20,4 C 99 % 1023,7 hPa 0,4 l/m 26,3 km/h
N-NW (4 Bft)
- - 16,1 C 20,4 C
Durchschnitt _ 15,1 C 89 % 1021,6 hPa #0,4 l/m 7,1 km/h (2 Bft) N - 13,2 C 15,1 C